Time;durP1;ratioP1;P1;durP2;ratioP2;P2;SDS_P1;SDS_P2;PMS_P1;PMS_P2;Temp;Humidity;BMP_temperature;BMP_pressure;BME280_temperature;BME280_humidity;BME280_pressure;Samples;Min_cycle;Max_cycle;Signal;HPM_P1;HPM_P2
2023/05/12 00:02:11;;;;;;;13.05;7.43;;;;;;;;;;6243516;23;20405;-80
2023/05/12 00:04:39;;;;;;;12.48;7.13;;;;;;;;;;6193222;23;20409;-80
2023/05/12 00:07:05;;;;;;;13.30;7.53;;;;;;;;;;6244169;23;20382;-80
2023/05/12 00:09:32;;;;;;;13.68;7.70;;;;;;;;;;6243874;23;20403;-80
2023/05/12 00:11:58;;;;;;;17.00;8.65;;;;;;;;;;6242651;23;20390;-80
2023/05/12 00:14:24;;;;;;;17.77;9.55;;;;;;;;;;6217956;23;20370;-79
2023/05/12 00:16:50;;;;;;;16.17;8.82;;;;;;;;;;6244529;23;20437;-79
2023/05/12 00:19:17;;;;;;;18.67;9.75;;;;;;;;;;6242994;23;20384;-77
2023/05/12 00:21:43;;;;;;;19.20;10.00;;;;;;;;;;6244798;23;20362;-80
2023/05/12 00:24:09;;;;;;;21.08;11.02;;;;;;;;;;6216423;23;20369;-79
2023/05/12 00:26:35;;;;;;;24.48;12.32;;;;;;;;;;6218245;23;20373;-80
2023/05/12 00:29:01;;;;;;;25.42;13.63;;;;;;;;;;6193192;23;20840;-80
2023/05/12 00:31:29;;;;;;;30.13;15.10;;;;;;;;;;6218213;23;20913;-81
2023/05/12 00:33:55;;;;;;;29.67;15.98;;;;;;;;;;6242874;23;20374;-80
2023/05/12 00:36:21;;;;;;;36.17;17.85;;;;;;;;;;6243862;23;20731;-80
2023/05/12 00:38:47;;;;;;;32.00;17.23;;;;;;;;;;6243063;23;20362;-80
2023/05/12 00:41:13;;;;;;;37.63;18.35;;;;;;;;;;6243629;23;20365;-79
2023/05/12 00:43:39;;;;;;;41.95;18.70;;;;;;;;;;6243079;23;20427;-79
2023/05/12 00:46:06;;;;;;;38.67;19.38;;;;;;;;;;6216995;23;20404;-80
2023/05/12 00:48:32;;;;;;;39.00;18.80;;;;;;;;;;6217799;23;20487;-79
2023/05/12 00:50:59;;;;;;;38.25;19.67;;;;;;;;;;6217628;23;20377;-80
2023/05/12 00:53:25;;;;;;;46.10;20.40;;;;;;;;;;6217907;23;20366;-80
2023/05/12 00:55:52;;;;;;;37.85;19.85;;;;;;;;;;6243383;23;20386;-79
2023/05/12 00:58:18;;;;;;;38.90;19.63;;;;;;;;;;6192404;23;20366;-80
2023/05/12 01:00:44;;;;;;;43.17;19.92;;;;;;;;;;6244041;23;20366;-80
2023/05/12 01:03:10;;;;;;;42.00;19.80;;;;;;;;;;6242879;23;20373;-79
2023/05/12 01:05:42;;;;;;;45.20;19.90;;;;;;;;;;6192179;23;20382;-79
2023/05/12 01:08:08;;;;;;;45.58;20.80;;;;;;;;;;6241906;23;20762;-79
2023/05/12 01:10:35;;;;;;;44.05;20.15;;;;;;;;;;6218545;23;20378;-78
2023/05/12 01:13:01;;;;;;;49.45;20.60;;;;;;;;;;6217079;23;20366;-80
2023/05/12 01:15:29;;;;;;;47.63;21.15;;;;;;;;;;6243902;23;20385;-81
2023/05/12 01:17:57;;;;;;;46.50;21.67;;;;;;;;;;6242222;23;20368;-81
2023/05/12 01:20:25;;;;;;;49.35;22.15;;;11.70;99.90;;;;;;6242909;23;20433;-80
2023/05/12 01:22:52;;;;;;;46.13;22.10;;;;;;;;;;6242250;23;20457;-80
2023/05/12 01:25:21;;;;;;;56.13;22.65;;;11.20;99.90;;;;;;6218166;23;20572;-80
2023/05/12 01:27:48;;;;;;;56.05;23.45;;;;;;;;;;6217913;23;20386;-80
2023/05/12 01:30:16;;;;;;;51.38;22.98;;;11.70;99.90;;;;;;6243875;23;20400;-79
2023/05/12 01:32:42;;;;;;;51.78;23.48;;;;;;;;;;6240976;23;20400;-79
2023/05/12 01:35:08;;;;;;;49.80;22.85;;;;;;;;;;6242679;23;20846;-79
2023/05/12 01:37:34;;;;;;;55.97;25.02;;;;;;;;;;6218027;23;20366;-80
2023/05/12 01:40:00;;;;;;;55.03;24.08;;;;;;;;;;6243521;23;20492;-77
2023/05/12 01:42:26;;;;;;;52.17;24.52;;;;;;;;;;6217146;23;20401;-80
2023/05/12 01:44:53;;;;;;;58.73;24.53;;;;;;;;;;6217266;23;20374;-80
2023/05/12 01:47:20;;;;;;;60.10;24.05;;;;;;;;;;6241421;23;20716;-80
2023/05/12 01:49:46;;;;;;;59.90;25.35;;;;;;;;;;6243228;23;20368;-80
2023/05/12 01:52:12;;;;;;;57.72;26.27;;;;;;;;;;6242095;23;20384;-80
2023/05/12 01:54:39;;;;;;;58.40;24.38;;;;;;;;;;6242595;23;20369;-80
2023/05/12 01:57:05;;;;;;;65.95;27.13;;;;;;;;;;6216794;23;20400;-80
2023/05/12 01:59:31;;;;;;;65.32;25.65;;;;;;;;;;6242215;23;20859;-80
2023/05/12 02:01:57;;;;;;;54.35;26.35;;;;;;;;;;6217514;23;20366;-80
2023/05/12 02:04:23;;;;;;;61.90;26.85;;;;;;;;;;6241976;23;20366;-79
2023/05/12 02:06:50;;;;;;;60.58;26.40;;;;;;;;;;6217571;23;20370;-80
2023/05/12 02:09:16;;;;;;;64.05;27.73;;;;;;;;;;6242881;23;20368;-79
2023/05/12 02:11:42;;;;;;;61.03;27.05;;;;;;;;;;6217234;23;20365;-79
2023/05/12 02:14:08;;;;;;;66.97;28.53;;;;;;;;;;6213300;23;20446;-79
2023/05/12 02:16:35;;;;;;;64.38;27.60;;;;;;;;;;6242010;23;20377;-79
2023/05/12 02:19:01;;;;;;;64.55;27.58;;;;;;;;;;6241574;23;20365;-80
2023/05/12 02:21:27;;;;;;;60.35;26.65;;;;;;;;;;6242790;23;20373;-80
2023/05/12 02:23:53;;;;;;;62.10;26.45;;;;;;;;;;6243072;23;20369;-76
2023/05/12 02:26:20;;;;;;;64.65;27.27;;;;;;;;;;6217792;23;20440;-78
2023/05/12 02:28:46;;;;;;;65.65;27.42;;;;;;;;;;6242929;22;20381;-76
2023/05/12 02:31:12;;;;;;;68.35;29.65;;;;;;;;;;6216516;23;20378;-76
2023/05/12 02:33:38;;;;;;;64.70;28.75;;;;;;;;;;6242637;23;20378;-76
2023/05/12 02:36:04;;;;;;;63.67;28.70;;;;;;;;;;6244846;23;20361;-76
2023/05/12 02:38:30;;;;;;;63.35;28.50;;;;;;;;;;6244177;23;20918;-78
2023/05/12 02:40:56;;;;;;;71.10;29.35;;;;;;;;;;6241495;23;20358;-76
2023/05/12 02:43:22;;;;;;;69.18;31.23;;;;;;;;;;6238428;22;20712;-77
2023/05/12 02:45:49;;;;;;;73.93;30.80;;;;;;;;;;6243894;23;20661;-76
2023/05/12 02:48:15;;;;;;;73.38;31.88;;;;;;;;;;6244073;23;20389;-77
2023/05/12 02:50:42;;;;;;;80.43;32.40;;;;;;;;;;6243348;23;20455;-76
2023/05/12 02:53:08;;;;;;;82.18;32.75;;;;;;;;;;6239311;23;20366;-77
2023/05/12 02:55:34;;;;;;;76.53;32.67;;;;;;;;;;6241695;23;20358;-76
2023/05/12 02:58:00;;;;;;;85.15;34.17;;;;;;;;;;6241315;23;20369;-78
2023/05/12 03:00:26;;;;;;;79.68;33.95;;;;;;;;;;6241634;23;20424;-77
2023/05/12 03:02:52;;;;;;;81.15;32.60;;;;;;;;;;6243879;23;20362;-77
2023/05/12 03:05:18;;;;;;;89.70;35.47;;;;;;;;;;6193080;23;20366;-77
2023/05/12 03:07:45;;;;;;;84.22;34.78;;;;;;;;;;6242599;23;20384;-77
2023/05/12 03:10:11;;;;;;;87.80;34.33;;;;;;;;;;6241647;22;20370;-77
2023/05/12 03:12:37;;;;;;;84.95;34.67;;;;;;;;;;6242160;23;20389;-77
2023/05/12 03:15:03;;;;;;;94.50;35.55;;;;;;;;;;6242425;23;20398;-77
2023/05/12 03:17:29;;;;;;;96.00;35.13;;;;;;;;;;6192151;23;20665;-76
2023/05/12 03:19:55;;;;;;;91.13;35.47;;;;;;;;;;6242888;23;20354;-76
2023/05/12 03:22:21;;;;;;;90.18;36.25;;;;;;;;;;6243296;23;20843;-76
2023/05/12 03:24:47;;;;;;;93.57;36.30;;;;;;;;;;6242096;23;20439;-77
2023/05/12 03:27:13;;;;;;;90.13;35.88;;;;;;;;;;6217290;23;20386;-76
2023/05/12 03:29:39;;;;;;;93.32;37.00;;;;;;;;;;6242405;23;20416;-76
2023/05/12 03:32:06;;;;;;;102.43;37.58;;;;;;;;;;6244462;23;20412;-76
2023/05/12 03:34:32;;;;;;;105.65;39.33;;;;;;;;;;6245077;23;20893;-76
2023/05/12 03:36:58;;;;;;;99.18;38.08;;;;;;;;;;6242060;23;20365;-76
2023/05/12 03:39:24;;;;;;;99.65;38.25;;;;;;;;;;6243437;23;20354;-76
2023/05/12 03:41:50;;;;;;;88.38;36.10;;;;;;;;;;6241400;23;20354;-76
2023/05/12 03:44:17;;;;;;;87.60;36.28;;;;;;;;;;6217316;23;20373;-77
2023/05/12 03:46:43;;;;;;;97.70;37.95;;;;;;;;;;6242902;23;20420;-76
2023/05/12 03:49:09;;;;;;;108.72;38.10;;;;;;;;;;6217465;23;20400;-77
2023/05/12 03:51:35;;;;;;;100.45;38.10;;;;;;;;;;6216042;23;20372;-76
2023/05/12 03:54:01;;;;;;;88.43;36.83;;;;;;;;;;6241497;23;20449;-76
2023/05/12 03:56:28;;;;;;;103.28;38.03;;;;;;;;;;6217292;23;20362;-76
2023/05/12 03:58:54;;;;;;;103.80;38.20;;;;;;;;;;6218229;23;20366;-76
2023/05/12 04:01:20;;;;;;;101.53;37.88;;;;;;;;;;6216631;23;20373;-76
2023/05/12 04:03:47;;;;;;;102.15;37.72;;;;;;;;;;6242754;23;20911;-76
2023/05/12 04:06:13;;;;;;;104.03;37.75;;;;;;;;;;6219245;23;20440;-76
2023/05/12 04:08:39;;;;;;;103.43;38.50;;;;;;;;;;6242845;23;20422;-76
2023/05/12 04:11:05;;;;;;;103.65;38.78;;;;;;;;;;6242627;23;20381;-77
2023/05/12 04:13:32;;;;;;;99.70;38.22;;;;;;;;;;6246482;22;20362;-77
2023/05/12 04:15:58;;;;;;;95.63;38.13;;;;;;;;;;6243849;23;20587;-76
2023/05/12 04:18:28;;;;;;;95.13;37.58;;;;;;;;;;6244993;23;20687;-76
2023/05/12 04:20:54;;;;;;;93.25;36.28;;;;;;;;;;6244732;23;20816;-76
2023/05/12 04:23:21;;;;;;;88.82;37.05;;;;;;;;;;6242553;23;20374;-77
2023/05/12 04:25:47;;;;;;;91.68;36.40;;;;;;;;;;6242690;23;20370;-76
2023/05/12 04:28:13;;;;;;;88.38;37.35;;;;;;;;;;6243293;23;20712;-77
2023/05/12 04:30:40;;;;;;;92.63;36.95;;;;;;;;;;6244492;23;20361;-76
2023/05/12 04:33:06;;;;;;;92.73;38.40;;;;;;;;;;6245129;22;20453;-77
2023/05/12 04:35:33;;;;;;;87.43;37.55;;;;;;;;;;6242531;23;20362;-77
2023/05/12 04:38:02;;;;;;;84.55;36.70;;;;;;;;;;6243939;23;20453;-76
2023/05/12 04:40:28;;;;;;;73.97;36.20;;;;;;;;;;6217671;23;20366;-76
2023/05/12 04:42:55;;;;;;;88.22;36.58;;;;;;;;;;6218270;23;20370;-77
2023/05/12 04:45:21;;;;;;;80.45;36.35;;;;;;;;;;6246396;23;20362;-76
2023/05/12 04:47:47;;;;;;;82.95;36.53;;;;;;;;;;6218102;23;20408;-76
2023/05/12 04:50:13;;;;;;;75.93;35.05;;;;;;;;;;6217382;23;20661;-76
2023/05/12 04:52:39;;;;;;;74.18;34.35;;;;;;;;;;6218149;23;20370;-76
2023/05/12 04:55:06;;;;;;;82.90;35.10;;;;;;;;;;6244364;23;20359;-76
2023/05/12 04:57:32;;;;;;;80.03;35.42;;;;;;;;;;6247157;22;20373;-76
2023/05/12 04:59:58;;;;;;;75.40;34.87;;;;;;;;;;6245850;23;20438;-76
2023/05/12 05:02:25;;;;;;;73.55;34.08;;;;;;;;;;6246415;23;20436;-76
2023/05/12 05:04:51;;;;;;;72.00;33.95;;;;;;;;;;6245458;23;20377;-77
2023/05/12 05:07:17;;;;;;;74.85;35.03;;;;;;;;;;6246306;23;20712;-76
2023/05/12 05:09:43;;;;;;;75.47;35.72;;;;;;;;;;6243071;23;20688;-76
2023/05/12 05:12:10;;;;;;;76.57;35.05;;;;;;;;;;6246621;23;20358;-76
2023/05/12 05:14:36;;;;;;;77.40;35.53;;;;;;;;;;6243657;23;20380;-76
2023/05/12 05:17:02;;;;;;;81.07;35.70;;;;;;;;;;6245007;23;20362;-76
2023/05/12 05:19:29;;;;;;;76.30;35.03;;;;;;;;;;6243452;23;20366;-76
2023/05/12 05:21:55;;;;;;;80.50;35.93;;;;;;;;;;6218949;23;20449;-75
2023/05/12 05:24:21;;;;;;;80.65;36.72;;;;;;;;;;6241676;23;20373;-74
2023/05/12 05:26:47;;;;;;;80.10;36.63;;;;;;;;;;6243962;23;20365;-75
2023/05/12 05:29:13;;;;;;;78.50;35.85;;;;;;;;;;6247556;23;20363;-75
2023/05/12 05:31:39;;;;;;;79.97;36.25;;;;;;;;;;6244744;23;20449;-75
2023/05/12 05:34:05;;;;;;;76.03;35.58;;;;;;;;;;6241886;23;20412;-75
2023/05/12 05:36:32;;;;;;;76.95;35.47;;;;;;;;;;6220563;23;20374;-76
2023/05/12 05:38:58;;;;;;;78.30;35.60;;;;;;;;;;6246913;22;20377;-76
2023/05/12 05:41:25;;;;;;;79.83;35.40;;;;;;;;;;6246343;23;20491;-75
2023/05/12 05:43:51;;;;;;;83.55;37.95;;;;;;;;;;6243794;23;20374;-75
2023/05/12 05:46:17;;;;;;;83.18;37.88;;;;;;;;;;6219511;23;20392;-75
2023/05/12 05:48:43;;;;;;;81.93;37.70;;;;;;;;;;6245030;23;20482;-74
2023/05/12 05:51:10;;;;;;;83.75;37.72;;;;;;;;;;6245657;23;20416;-76
2023/05/12 05:53:36;;;;;;;92.18;38.60;;;;;;;;;;6244789;22;20358;-76
2023/05/12 05:56:02;;;;;;;89.97;38.60;;;;;;;;;;6242579;23;20366;-76
2023/05/12 05:58:28;;;;;;;88.77;38.23;;;;;;;;;;6243519;23;20362;-77
2023/05/12 06:00:59;;;;;;;82.55;36.70;;;;;;;;;;6241180;23;20433;-75
2023/05/12 06:03:25;;;;;;;78.72;36.08;;;;;;;;;;6242045;23;20735;-76
2023/05/12 06:05:51;;;;;;;86.20;37.58;;;;;;;;;;6244166;22;20361;-76
2023/05/12 06:08:17;;;;;;;78.18;35.70;;;;;;;;;;6240014;23;20388;-75
2023/05/12 06:10:43;;;;;;;82.10;36.15;;;;;;;;;;6241871;23;20378;-76
2023/05/12 06:13:10;;;;;;;76.20;35.60;;;;;;;;;;6191351;23;20799;-77
2023/05/12 06:15:36;;;;;;;77.90;36.00;;;;;;;;;;6215397;23;20397;-75
2023/05/12 06:18:03;;;;;;;66.85;33.47;;;;;;;;;;6214610;23;20433;-75
2023/05/12 06:20:29;;;;;;;72.72;35.05;;;;;;;;;;6240269;23;20396;-75
2023/05/12 06:22:55;;;;;;;72.63;35.73;;;;;;;;;;6240391;23;20684;-75
2023/05/12 06:25:21;;;;;;;77.20;36.35;;;;;;;;;;6216849;23;20366;-75
2023/05/12 06:27:47;;;;;;;72.07;35.15;;;;;;;;;;6216829;23;21217;-74
2023/05/12 06:30:13;;;;;;;70.70;35.40;;;;;;;;;;6217091;23;20376;-75
2023/05/12 06:32:39;;;;;;;63.30;33.72;;;;;;;;;;6215387;23;20374;-74
2023/05/12 06:35:06;;;;;;;68.57;35.13;;;;;;;;;;6214410;23;20419;-74
2023/05/12 06:37:32;;;;;;;90.40;37.23;;;;;;;;;;6242233;23;20368;-75
2023/05/12 06:39:58;;;;;;;69.10;34.38;;;;;;;;;;6191295;23;20408;-74
2023/05/12 06:42:24;;;;;;;67.75;34.50;;;;;;;;;;6241981;23;20366;-75
2023/05/12 06:44:50;;;;;;;69.78;34.17;;;;;;;;;;6216435;23;20385;-75
2023/05/12 06:47:16;;;;;;;62.28;32.85;;;;;;;;;;6216104;23;20807;-75
2023/05/12 06:49:43;;;;;;;65.82;33.90;;;;;;;;;;6214482;23;20362;-75
2023/05/12 06:52:09;;;;;;;63.03;33.70;;;;;;;;;;6241262;23;20373;-75
2023/05/12 06:54:35;;;;;;;58.20;32.60;;;;;;;;;;6215999;23;20692;-75
2023/05/12 06:57:01;;;;;;;64.10;33.00;;;;;;;;;;6241894;23;20441;-76
2023/05/12 06:59:30;;;;;;;62.28;34.40;;;;;;;;;;6214545;23;20362;-75
2023/05/12 07:01:57;;;;;;;61.65;33.25;;;;;;;;;;6213724;23;20420;-76
2023/05/12 07:04:25;;;;;;;61.10;33.90;;;;;;;;;;6239201;23;20393;-73
2023/05/12 07:06:51;;;;;;;63.90;33.72;;;;;;;;;;6239683;22;20364;-73
2023/05/12 07:09:17;;;;;;;59.55;33.38;;;;;;;;;;6240660;23;20369;-75
2023/05/12 07:11:43;;;;;;;61.25;33.58;;;;;;;;;;6241866;23;20374;-74
2023/05/12 07:14:10;;;;;;;61.10;33.47;;;;;;;;;;6241011;23;20374;-74
2023/05/12 07:16:36;;;;;;;61.15;34.17;;;;;;;;;;6241934;23;20373;-74
2023/05/12 07:19:04;;;;;;;60.05;33.45;;;;;;;;;;6239128;23;20847;-75
2023/05/12 07:21:30;;;;;;;58.17;32.53;;;;;;;;;;6240132;23;20377;-75
2023/05/12 07:23:56;;;;;;;63.70;34.08;;;;;;;;;;6241258;23;20385;-76
2023/05/12 07:26:23;;;;;;;62.90;34.43;;;;;;;;;;6240903;23;20366;-76
2023/05/12 07:28:49;;;;;;;57.58;32.20;;;;;;;;;;6240382;23;20397;-74
2023/05/12 07:31:15;;;;;;;59.15;32.00;;;;;;;;;;6242427;23;20354;-74
2023/05/12 07:33:41;;;;;;;60.30;33.20;;;;;;;;;;6242459;23;20676;-75
2023/05/12 07:36:07;;;;;;;57.88;32.38;;;;;;;;;;6242897;23;20358;-75
2023/05/12 07:38:34;;;;;;;56.65;32.15;;;;;;;;;;6240246;23;20824;-76
2023/05/12 07:41:00;;;;;;;59.45;32.78;;;;;;;;;;6244312;23;20358;-75
2023/05/12 07:43:27;;;;;;;56.03;32.90;;;;;;;;;;6243690;22;20835;-74
2023/05/12 07:45:54;;;;;;;57.10;32.03;;;;;;;;;;6241711;23;20959;-73
2023/05/12 07:48:21;;;;;;;55.63;32.67;;;;;;;;;;6216899;23;20381;-73
2023/05/12 07:50:47;;;;;;;55.33;32.38;;;;;;;;;;6240488;22;20349;-73
2023/05/12 07:53:13;;;;;;;53.35;32.15;;;;;;;;;;6242948;23;20357;-73
2023/05/12 07:55:40;;;;;;;57.20;33.45;;;;;;;;;;6245170;23;20361;-74
2023/05/12 07:58:06;;;;;;;55.88;33.35;;;;;;;;;;6242048;23;20365;-74
2023/05/12 08:00:32;;;;;;;55.42;32.83;;;;;;;;;;6215457;23;20945;-74
2023/05/12 08:02:58;;;;;;;59.83;33.43;;;;;;;;;;6241970;23;20863;-74
2023/05/12 08:05:24;;;;;;;52.40;32.38;;;;;;;;;;6240869;23;20370;-74
2023/05/12 08:07:51;;;;;;;53.28;32.30;;;;;;;;;;6243504;23;20685;-74
2023/05/12 08:10:18;;;;;;;53.85;32.80;;;;;;;;;;6243314;23;20408;-74
2023/05/12 08:12:44;;;;;;;50.85;31.27;;;;;;;;;;6243224;23;20369;-74
2023/05/12 08:15:11;;;;;;;49.08;32.50;;;;;;;;;;6214859;23;20700;-74
2023/05/12 08:17:37;;;;;;;48.60;31.02;;;;;;;;;;6243599;22;20835;-74
2023/05/12 08:20:03;;;;;;;49.97;32.03;;;;;;;;;;6245057;23;20824;-73
2023/05/12 08:22:30;;;;;;;49.13;32.10;;;;;;;;;;6243299;23;20370;-74
2023/05/12 08:24:56;;;;;;;47.97;31.00;;;;;;;;;;6244977;23;20354;-75
2023/05/12 08:27:22;;;;;;;45.13;30.88;;;;;;;;;;6244960;23;20413;-75
2023/05/12 08:29:48;;;;;;;51.30;30.40;;;;;;;;;;6241635;23;20723;-74
2023/05/12 08:32:15;;;;;;;44.75;29.95;;;;;;;;;;6245473;23;20358;-73
2023/05/12 08:34:41;;;;;;;41.33;30.15;;;;;;;;;;6243991;22;20358;-73
2023/05/12 08:37:07;;;;;;;39.13;28.85;;;;;;;;;;6245184;23;20354;-73
2023/05/12 08:39:33;;;;;;;38.63;27.13;;;;;;;;;;6242854;23;20372;-72
2023/05/12 08:42:08;;;;;;;39.38;29.00;;;;;;;;;;6242973;22;20409;-73
2023/05/12 08:44:35;;;;;;;39.08;28.27;;;;;;;;;;6242560;23;20370;-73
2023/05/12 08:47:02;;;;;;;40.67;27.95;;;;;;;;;;6244903;23;20816;-74
2023/05/12 08:49:31;;;;;;;39.33;28.17;;;;;;;;;;6243922;23;20435;-73
2023/05/12 08:51:57;;;;;;;39.78;28.75;;;;;;;;;;6244598;23;20361;-74
2023/05/12 08:54:26;;;;;;;36.22;28.33;;;;;;;;;;6244594;23;21135;-73
2023/05/12 08:56:52;;;;;;;36.63;27.73;;;;;;;;;;6243817;23;20430;-73
2023/05/12 08:59:19;;;;;;;35.08;25.83;;;;;;;;;;6216267;23;20998;-74
2023/05/12 09:01:46;;;;;;;36.53;27.73;;;;;;;;;;6243775;22;20362;-73
2023/05/12 09:04:16;;;;;;;34.43;27.77;;;;;;;;;;6244904;23;20354;-74
2023/05/12 09:06:45;;;;;;;33.80;26.67;;;;;;;;;;6243076;23;20413;-74
2023/05/12 09:09:16;;;;;;;31.70;26.02;;;;;;;;;;6241187;23;20432;-74
2023/05/12 09:11:42;;;;;;;32.75;26.63;;;;;;;;;;6240914;23;20388;-73
2023/05/12 09:14:10;;;;;;;31.40;25.80;;;;;;;;;;6241559;23;20369;-74
2023/05/12 09:16:47;;;;;;;30.15;25.35;;;;;;;;;;6240238;22;20440;-74
2023/05/12 09:19:18;;;;;;;30.88;25.73;;;;;;;;;;6213936;23;20369;-76
2023/05/12 09:21:44;;;;;;;33.75;25.70;;;;;;;;;;6211275;23;20369;-74
2023/05/12 09:24:10;;;;;;;29.97;24.87;;;;;;;;;;6186244;23;20393;-73
2023/05/12 09:26:48;;;;;;;29.17;23.50;;;;;;;;;;6238024;23;20382;-73
2023/05/12 09:29:15;;;;;;;28.35;24.80;;;;;;;;;;6240330;23;20389;-73
2023/05/12 09:31:50;;;;;;;30.07;24.53;;;;;;;;;;6240042;23;20420;-73
2023/05/12 09:34:16;;;;;;;29.65;24.85;;;;;;;;;;6243581;22;20437;-73
2023/05/12 09:36:44;;;;;;;29.42;24.73;;;;;;;;;;6244134;23;20358;-71
2023/05/12 09:39:11;;;;;;;29.55;23.70;;;;;;;;;;6242212;22;20830;-72
2023/05/12 09:41:41;;;;;;;27.58;22.95;;;;;;;;;;6240129;22;20372;-73
2023/05/12 09:44:08;;;;;;;26.17;22.38;;;;;;;;;;6211813;23;20366;-73
2023/05/12 09:46:34;;;;;;;28.55;23.38;;;;;;;;;;6239441;23;20401;-73
2023/05/12 09:49:02;;;;;;;26.10;22.63;;;;;;;;;;6237640;23;20382;-73
2023/05/12 09:51:29;;;;;;;24.70;21.50;;;;;;;;;;6238321;22;20404;-74
2023/05/12 09:53:56;;;;;;;22.30;19.27;;;;;;;;;;6236472;23;20435;-74
2023/05/12 09:56:24;;;;;;;23.73;20.30;;;;;;;;;;6237143;23;20851;-74
2023/05/12 09:58:51;;;;;;;23.27;20.65;;;;;;;;;;6238671;22;20366;-73
2023/05/12 10:01:18;;;;;;;24.20;20.77;;;;;;;;;;6237604;22;20362;-73
2023/05/12 10:04:06;;;;;;;21.83;18.30;;;;;;;;;;6236235;23;20360;-73
2023/05/12 10:06:36;;;;;;;21.23;18.00;;;19.80;99.90;;;;;;6212233;23;20366;-73
2023/05/12 10:09:15;;;;;;;23.10;19.98;;;;;;;;;;6233813;23;20500;-72
2023/05/12 10:11:42;;;;;;;24.35;19.30;;;;;;;;;;6231229;23;20389;-73
2023/05/12 10:14:08;;;;;;;26.00;19.40;;;;;;;;;;6240577;23;20558;-74
2023/05/12 10:16:35;;;;;;;21.70;18.50;;;;;;;;;;6238613;23;20752;-73
2023/05/12 10:19:03;;;;;;;24.33;19.08;;;19.60;99.90;;;;;;6237321;23;20451;-73
2023/05/12 10:21:29;;;;;;;21.25;18.80;;;;;;;;;;6239124;23;20962;-74
2023/05/12 10:23:56;;;;;;;23.75;19.02;;;;;;;;;;6234424;22;20358;-74
2023/05/12 10:26:23;;;;;;;22.48;18.58;;;;;;;;;;6238835;22;20832;-74
2023/05/12 10:28:50;;;;;;;19.52;17.42;;;;;;;;;;6239762;23;20386;-74
2023/05/12 10:31:16;;;;;;;22.13;18.50;;;;;;;;;;6212294;23;20422;-73
2023/05/12 10:33:42;;;;;;;20.23;18.13;;;;;;;;;;6243157;23;20374;-73
2023/05/12 10:36:18;;;;;;;20.70;18.52;;;;;;;;;;6241794;23;20400;-73
2023/05/12 10:38:48;;;;;;;20.02;16.80;;;;;;;;;;6241760;23;20377;-74
2023/05/12 10:41:15;;;;;;;19.05;16.85;;;;;;;;;;6241907;22;20423;-74
2023/05/12 10:43:44;;;;;;;19.90;17.13;;;;;;;;;;6240318;23;20757;-73
2023/05/12 10:46:19;;;;;;;21.48;18.20;;;;;;;;;;6237527;22;20743;-73
2023/05/12 10:49:04;;;;;;;20.60;18.10;;;;;;;;;;6234912;23;20727;-74
2023/05/12 10:51:32;;;;;;;21.37;17.93;;;;;;;;;;6236758;22;20972;-74
2023/05/12 10:54:05;;;;;;;20.50;17.92;;;;;;;;;;6235803;23;20365;-74
2023/05/12 10:56:37;;;;;;;22.80;17.03;;;21.00;99.90;;;;;;6239549;23;20400;-76
2023/05/12 10:59:17;;;;;;;20.02;16.63;;;21.10;99.90;;;;;;6216712;23;20428;-76
2023/05/12 11:02:02;;;;;;;19.20;16.00;;;;;;;;;;6216525;23;20419;-76
2023/05/12 11:04:41;;;;;;;19.23;17.20;;;21.10;99.90;;;;;;6215832;23;20407;-76
2023/05/12 11:07:08;;;;;;;20.02;17.77;;;;;;;;;;6242192;23;20449;-76
2023/05/12 11:09:35;;;;;;;18.98;16.63;;;;;;;;;;6213187;23;20396;-76
2023/05/12 11:12:01;;;;;;;17.45;15.55;;;;;;;;;;6185344;23;20743;-77
2023/05/12 11:14:27;;;;;;;17.40;15.40;;;;;;;;;;6237319;23;20839;-77
2023/05/12 11:16:53;;;;;;;18.90;16.50;;;21.20;99.90;;;;;;6235020;23;20851;-76
2023/05/12 11:19:19;;;;;;;19.63;16.87;;;21.30;99.90;;;;;;6234608;23;20370;-77
2023/05/12 11:21:44;;;;;;;19.60;16.13;;;21.40;99.90;;;;;;6235285;23;20901;-75
2023/05/12 11:24:10;;;;;;;19.35;17.05;;;21.30;99.90;;;;;;6186866;23;20381;-76
2023/05/12 11:26:38;;;;;;;21.10;15.68;;;21.60;99.90;;;;;;6240506;23;20370;-76
2023/05/12 11:29:04;;;;;;;21.13;14.82;;;21.90;99.90;;;;;;6240765;23;20386;-77
2023/05/12 11:31:30;;;;;;;17.15;15.10;;;21.70;99.90;;;;;;6213575;23;20370;-77
2023/05/12 11:34:06;;;;;;;16.73;14.07;;;21.80;99.90;;;;;;6215541;23;20384;-77
2023/05/12 11:36:36;;;;;;;19.42;14.73;;;21.60;99.90;;;;;;6239991;23;20372;-76
2023/05/12 11:39:02;;;;;;;16.17;14.23;;;;;;;;;;6238707;23;20366;-76
2023/05/12 11:41:28;;;;;;;15.35;12.45;;;;;;;;;;6214484;23;20372;-76
2023/05/12 11:43:54;;;;;;;15.00;13.23;;;;;;;;;;6213213;23;20377;-74
2023/05/12 11:46:27;;;;;;;15.55;13.95;;;22.40;99.90;;;;;;6216808;23;20380;-74
2023/05/12 11:49:08;;;;;;;14.63;12.98;;;22.60;99.90;;;;;;6238985;23;20390;-74
2023/05/12 11:51:34;;;;;;;15.82;13.38;;;22.50;99.90;;;;;;6239388;23;20416;-76
2023/05/12 11:54:00;;;;;;;13.30;11.93;;;22.80;99.90;;;;;;6239092;23;20366;-77
2023/05/12 11:56:25;;;;;;;13.40;10.63;;;22.90;99.90;;;;;;6240188;23;20756;-77
2023/05/12 11:58:52;;;;;;;14.73;11.10;;;22.90;99.90;;;;;;6240756;23;20743;-75
2023/05/12 12:01:17;;;;;;;13.73;11.48;;;22.80;99.90;;;;;;6241870;23;20366;-73
2023/05/12 12:03:48;;;;;;;12.73;11.25;;;22.90;99.90;;;;;;6190621;23;20612;-74
2023/05/12 12:06:15;;;;;;;12.13;10.33;;;23.00;99.90;;;;;;6242616;23;20684;-75
2023/05/12 12:08:55;;;;;;;11.43;9.80;;;22.80;99.90;;;;;;6242192;23;20417;-76
2023/05/12 12:11:22;;;;;;;11.07;9.10;;;22.80;99.90;;;;;;6192521;23;20427;-75
2023/05/12 12:13:55;;;;;;;9.70;8.40;;;22.60;99.90;;;;;;6193338;23;20923;-75
2023/05/12 12:16:30;;;;;;;9.48;8.10;;;23.10;99.90;;;;;;6242028;23;20369;-75
2023/05/12 12:18:56;;;;;;;9.87;7.63;;;23.40;99.90;;;;;;6242471;23;20369;-77
2023/05/12 12:21:23;;;;;;;8.20;6.70;;;23.20;99.90;;;;;;6239834;23;20460;-76
2023/05/12 12:23:49;;;;;;;13.07;6.18;;;23.70;99.90;;;;;;6241265;23;20453;-76
2023/05/12 12:26:15;;;;;;;14.75;6.70;;;23.20;99.90;;;;;;6243127;23;20366;-75
2023/05/12 12:28:50;;;;;;;8.30;6.37;;;23.20;99.90;;;;;;6243969;23;20439;-74
2023/05/12 12:31:16;;;;;;;9.52;6.38;;;23.60;99.90;;;;;;6243234;23;20366;-75
2023/05/12 12:33:42;;;;;;;6.95;6.25;;;23.70;99.90;;;;;;6243189;23;20783;-75
2023/05/12 12:36:08;;;;;;;9.18;5.40;;;23.60;99.90;;;;;;6243139;23;20828;-75
2023/05/12 12:38:34;;;;;;;7.18;5.05;;;23.60;99.90;;;;;;6218132;23;20377;-76
2023/05/12 12:40:59;;;;;;;6.40;4.05;;;23.30;99.90;;;;;;6219014;23;20369;-76
2023/05/12 12:43:28;;;;;;;9.00;5.27;;;24.00;99.90;;;;;;6244753;23;20368;-76
2023/05/12 12:45:54;;;;;;;7.68;5.50;;;23.70;99.90;;;;;;6218881;23;20377;-76
2023/05/12 12:48:20;;;;;;;6.70;5.70;;;23.50;99.90;;;;;;6217017;23;20393;-76
2023/05/12 12:50:46;;;;;;;6.70;4.95;;;23.60;99.90;;;;;;6241378;23;20946;-76
2023/05/12 12:53:11;;;;;;;6.97;3.97;;;24.20;99.90;;;;;;6241383;23;20386;-75
2023/05/12 12:55:37;;;;;;;5.47;3.75;;;24.40;99.90;;;;;;6214953;23;20500;-73
2023/05/12 12:58:03;;;;;;;6.60;4.20;;;23.70;99.90;;;;;;6241456;23;20370;-75
2023/05/12 13:00:29;;;;;;;6.47;3.97;;;23.70;99.90;;;;;;6238983;23;20490;-76
2023/05/12 13:02:55;;;;;;;6.85;4.70;;;23.70;99.90;;;;;;6215439;23;20454;-77
2023/05/12 13:05:20;;;;;;;6.20;4.28;;;24.10;99.90;;;;;;6214831;23;20770;-75
2023/05/12 13:07:46;;;;;;;6.70;4.20;;;24.40;99.90;;;;;;6238212;23;20428;-76
2023/05/12 13:10:12;;;;;;;7.00;3.22;;;24.60;99.90;;;;;;6242429;23;20365;-75
2023/05/12 13:12:38;;;;;;;5.90;3.53;;;24.60;99.90;;;;;;6243741;23;20685;-75
2023/05/12 13:15:04;;;;;;;5.60;3.40;;;23.90;99.90;;;;;;6243777;23;20370;-75
2023/05/12 13:17:30;;;;;;;5.47;3.35;;;24.10;99.90;;;;;;6243873;23;20423;-75
2023/05/12 13:19:57;;;;;;;4.37;3.07;;;23.80;99.90;;;;;;6241712;23;20366;-76
2023/05/12 13:22:26;;;;;;;5.28;3.22;;;23.80;99.90;;;;;;6242632;23;20437;-76
2023/05/12 13:24:53;;;;;;;4.60;2.80;;;24.00;99.60;;;;;;6243411;23;20366;-76
2023/05/12 13:27:19;;;;;;;6.38;2.90;;;24.30;99.00;;;;;;6243478;23;20419;-76
2023/05/12 13:29:47;;;;;;;5.18;2.80;;;24.00;98.10;;;;;;6244091;23;20348;-75
2023/05/12 13:32:14;;;;;;;5.07;2.85;;;24.10;98.70;;;;;;6219163;23;20362;-75
2023/05/12 13:34:41;;;;;;;6.13;2.97;;;23.80;99.70;;;;;;6242589;23;20737;-76
2023/05/12 13:37:07;;;;;;;6.07;3.20;;;23.80;99.90;;;;;;6245362;23;20354;-76
2023/05/12 13:39:34;;;;;;;6.03;2.90;;;23.60;98.90;;;;;;6243198;23;20422;-76
2023/05/12 13:42:00;;;;;;;4.90;3.10;;;23.10;99.60;;;;;;6243789;23;20394;-75
2023/05/12 13:44:26;;;;;;;5.23;3.03;;;22.90;99.40;;;;;;6217485;23;20362;-75
2023/05/12 13:46:52;;;;;;;5.97;3.03;;;22.70;99.90;;;;;;6216408;23;20377;-76
2023/05/12 13:49:18;;;;;;;5.13;3.05;;;23.00;99.90;;;;;;6241741;23;20441;-76
2023/05/12 13:51:44;;;;;;;4.87;3.00;;;22.80;99.90;;;;;;6217300;23;20362;-75
2023/05/12 13:54:10;;;;;;;3.70;2.70;;;23.20;99.90;;;;;;6241937;23;20441;-76